createdAt,value
2018-10-16T00:00:30.109Z,34.59
2018-10-16T00:01:40.435Z,34.49
2018-10-16T00:02:50.522Z,34.01
2018-10-16T00:04:00.351Z,33.54
2018-10-16T00:05:10.439Z,32.78
2018-10-16T00:06:20.436Z,32.97
2018-10-16T00:07:30.470Z,32.2
2018-10-16T00:08:40.781Z,32.2
2018-10-16T00:09:49.966Z,31.63
2018-10-16T00:10:59.989Z,31.53
2018-10-16T00:12:09.751Z,30.96
2018-10-16T00:13:20.088Z,30.86
2018-10-16T00:14:30.105Z,30.96
2018-10-16T00:15:39.835Z,30.67
2018-10-16T00:16:49.571Z,30.67
2018-10-16T00:17:59.879Z,30.38
2018-10-16T00:19:09.933Z,30.19
2018-10-16T00:20:19.969Z,30.38
2018-10-16T00:21:29.714Z,30.38
2018-10-16T00:22:39.728Z,30.19
2018-10-16T00:23:49.748Z,30.1
2018-10-16T00:24:59.830Z,30.29
2018-10-16T00:26:09.318Z,30.29
2018-10-16T00:27:19.365Z,30.29
2018-10-16T00:28:29.391Z,30.19
2018-10-16T00:29:39.148Z,29.91
2018-10-16T00:30:48.606Z,29.81
2018-10-16T00:31:58.936Z,29.72
2018-10-16T00:33:08.976Z,29.91
2018-10-16T00:34:19.284Z,29.72
2018-10-16T00:35:29.019Z,29.72
2018-10-16T00:36:39.060Z,29.81
2018-10-16T00:37:49.093Z,29.81
2018-10-16T00:38:58.833Z,29.72
2018-10-16T00:40:08.856Z,29.62
2018-10-16T00:41:18.321Z,29.33
2018-10-16T00:42:28.356Z,29.24
2018-10-16T00:43:38.116Z,29.33
2018-10-16T00:44:48.146Z,29.33
2018-10-16T00:45:57.640Z,28.95
2018-10-16T00:47:07.384Z,28.95
2018-10-16T00:48:17.397Z,29.14
2018-10-16T00:49:27.130Z,28.95
2018-10-16T00:50:36.583Z,28.95
2018-10-16T00:51:46.317Z,29.14
2018-10-16T00:52:56.332Z,29.24
2018-10-16T00:54:05.796Z,29.52
2018-10-16T00:55:15.808Z,29.33
2018-10-16T00:56:25.841Z,29.52
2018-10-16T00:57:35.878Z,29.14
2018-10-16T00:58:45.909Z,28.95
2018-10-16T00:59:55.941Z,28.95
2018-10-16T01:01:05.411Z,29.33
2018-10-16T01:02:15.500Z,30.29
2018-10-16T01:03:25.239Z,30.19
2018-10-16T01:04:34.983Z,30.29
2018-10-16T01:05:44.717Z,30.19
2018-10-16T01:06:54.791Z,30.38
2018-10-16T01:08:05.135Z,30
2018-10-16T01:09:14.922Z,30
2018-10-16T01:10:24.671Z,30.77
2018-10-16T01:11:34.130Z,30.77
2018-10-16T01:12:44.186Z,30.38
2018-10-16T01:13:54.212Z,30.19
2018-10-16T01:15:03.969Z,30.19
2018-10-16T01:16:13.998Z,30
2018-10-16T01:17:23.729Z,30
2018-10-16T01:18:33.470Z,29.24
2018-10-16T01:19:43.516Z,29.33
2018-10-16T01:20:53.857Z,29.33
2018-10-16T01:22:03.874Z,29.43
2018-10-16T01:23:13.627Z,29.43
2018-10-16T01:24:23.654Z,30.1
2018-10-16T01:25:33.400Z,29.81
2018-10-16T01:26:43.539Z,29.81
2018-10-16T01:27:53.593Z,29.72
2018-10-16T01:29:03.915Z,29.52
2018-10-16T01:30:13.672Z,29.33
2018-10-16T01:31:24.038Z,28.95
2018-10-16T01:32:34.053Z,29.24
2018-10-16T01:33:44.075Z,29.14
2018-10-16T01:34:54.445Z,29.52
2018-10-16T01:36:04.769Z,29.91
2018-10-16T01:37:14.811Z,29.91
2018-10-16T01:38:24.575Z,29.91
2018-10-16T01:39:34.912Z,29.72
2018-10-16T01:40:44.934Z,29.81
2018-10-16T01:41:54.688Z,29.52
2018-10-16T01:43:04.417Z,29.43
2018-10-16T01:44:14.179Z,29.43
2018-10-16T01:45:24.210Z,29.81
2018-10-16T01:46:33.699Z,30.19
2018-10-16T01:47:43.731Z,30.77
2018-10-16T01:48:53.760Z,30.38
2018-10-16T01:50:03.506Z,30.29
2018-10-16T01:51:12.970Z,31.05
2018-10-16T01:52:23.027Z,30.1
2018-10-16T01:53:33.054Z,30.86
2018-10-16T01:54:43.080Z,30.58
2018-10-16T01:55:52.858Z,30.3
2018-10-16T01:57:02.883Z,30.38
2018-10-16T01:58:12.885Z,30.29
2018-10-16T01:59:22.953Z,30.29
2018-10-16T02:00:32.979Z,30.29
2018-10-16T02:01:42.717Z,30.02
2018-10-16T02:02:52.743Z,30.3
2018-10-16T02:04:03.073Z,30.49
2018-10-16T02:05:12.536Z,30.59
2018-10-16T02:06:22.862Z,31.74
2018-10-16T02:07:32.888Z,31.26
2018-10-16T02:08:43.214Z,30.78
2018-10-16T02:09:52.989Z,30.69
2018-10-16T02:11:02.745Z,30.21
2018-10-16T02:12:12.763Z,29.92
2018-10-16T02:13:22.851Z,29.54
2018-10-16T02:14:32.614Z,29.25
2018-10-16T02:15:42.375Z,29.35
2018-10-16T02:16:52.120Z,29.35
2018-10-16T02:18:02.157Z,29.35
2018-10-16T02:19:12.177Z,29.16
2018-10-16T02:20:22.483Z,29.06
2018-10-16T02:21:32.251Z,29.35
2018-10-16T02:22:42.571Z,29.16
2018-10-16T02:23:52.327Z,29.35
2018-10-16T02:25:02.423Z,29.44
2018-10-16T02:26:12.459Z,29.06
2018-10-16T02:27:22.795Z,29.06
2018-10-16T02:28:33.119Z,28.58
2018-10-16T02:29:43.172Z,28.49
2018-10-16T02:30:52.947Z,28.58
2018-10-16T02:32:03.022Z,29.35
2018-10-16T02:33:13.133Z,29.06
2018-10-16T02:34:23.170Z,28.68
2018-10-16T02:35:32.652Z,28.68
2018-10-16T02:36:42.411Z,29.06
2018-10-16T02:37:52.451Z,28.77
2018-10-16T02:39:02.776Z,28.68
2018-10-16T02:40:12.832Z,28.77
2018-10-16T02:41:22.936Z,28.87
2018-10-16T02:42:32.742Z,29.06
2018-10-16T02:43:42.494Z,28.87
2018-10-16T02:44:51.965Z,28.77
2018-10-16T02:46:01.704Z,29.06
2018-10-16T02:47:11.512Z,28.68
2018-10-16T02:48:21.853Z,28.49
2018-10-16T02:49:31.976Z,28.3
2018-10-16T02:50:41.994Z,28.2
2018-10-16T02:51:52.335Z,28.49
2018-10-16T02:53:01.811Z,28.01
2018-10-16T02:54:11.572Z,27.44
2018-10-16T02:55:21.367Z,26.86
2018-10-16T02:56:31.401Z,27.53
2018-10-16T02:57:41.454Z,27.53
2018-10-16T02:58:50.630Z,27.44
2018-10-16T03:00:00.681Z,27.62
2018-10-16T03:01:10.741Z,27.53
2018-10-16T03:02:21.064Z,27.25
2018-10-16T03:03:31.114Z,27.62
2018-10-16T03:04:41.448Z,26.76
2018-10-16T03:05:51.252Z,26.76
2018-10-16T03:07:01.009Z,26.29
2018-10-16T03:08:10.748Z,26.48
2018-10-16T03:09:20.514Z,26.29
2018-10-16T03:10:30.577Z,26.76
2018-10-16T03:11:40.345Z,26.57
2018-10-16T03:12:50.120Z,26.39
2018-10-16T03:14:00.145Z,26.29
2018-10-16T03:15:10.467Z,26.39
2018-10-16T03:16:20.506Z,26.1
2018-10-16T03:17:30.302Z,25.9
2018-10-16T03:18:40.045Z,26.57
2018-10-16T03:19:49.500Z,26.57
2018-10-16T03:20:58.689Z,26.76
2018-10-16T03:22:08.460Z,27.44
2018-10-16T03:23:18.485Z,27.53
2018-10-16T03:24:27.968Z,26.57
2018-10-16T03:25:38.017Z,26.76
2018-10-16T03:26:48.057Z,26.29
2018-10-16T03:27:57.827Z,26.57
2018-10-16T03:29:08.147Z,26.19
2018-10-16T03:30:17.890Z,26.1
2018-10-16T03:31:27.692Z,26.19
2018-10-16T03:32:38.012Z,26
2018-10-16T03:33:48.059Z,26
2018-10-16T03:34:57.247Z,26
2018-10-16T03:36:07.286Z,26.1
2018-10-16T03:37:16.769Z,25.9
2018-10-16T03:38:26.817Z,25.9
2018-10-16T03:39:37.138Z,26.1
2018-10-16T03:40:46.582Z,26.1
2018-10-16T03:41:56.641Z,26.1
2018-10-16T03:43:06.388Z,26.1
2018-10-16T03:44:16.700Z,25.9
2018-10-16T03:45:26.736Z,25.52
2018-10-16T03:46:37.075Z,25.62
2018-10-16T03:47:47.652Z,25.52
2018-10-16T03:48:57.712Z,25.43
2018-10-16T03:50:07.755Z,25.43
2018-10-16T03:51:17.513Z,25.24
2018-10-16T03:52:27.277Z,25.43
2018-10-16T03:53:37.050Z,25.43
2018-10-16T03:54:46.791Z,26.1
2018-10-16T03:55:57.099Z,25.9
2018-10-16T03:57:07.180Z,25.9
2018-10-16T03:58:17.533Z,26.1
2018-10-16T03:59:27.288Z,25.52
2018-10-16T04:00:37.320Z,25.9
2018-10-16T04:01:47.626Z,25.9
2018-10-16T04:02:57.649Z,26.1
2018-10-16T04:04:07.409Z,25.81
2018-10-16T04:05:17.151Z,25.43
2018-10-16T04:06:27.479Z,25.81
2018-10-16T04:07:37.219Z,26.1
2018-10-16T04:08:46.914Z,26.19
2018-10-16T04:09:56.299Z,26.29
2018-10-16T04:11:05.685Z,26.29
2018-10-16T04:12:15.888Z,26.1
2018-10-16T04:13:25.526Z,25.43
2018-10-16T04:14:35.452Z,25.33
2018-10-16T04:15:45.117Z,24.95
2018-10-16T04:16:55.044Z,24.28
2018-10-16T04:18:04.656Z,24.38
2018-10-16T04:19:14.564Z,23.99
2018-10-16T04:20:24.180Z,23.23
2018-10-16T04:21:34.438Z,23.04
2018-10-16T04:22:44.122Z,22.56
2018-10-16T04:23:54.203Z,22.56
2018-10-16T04:25:04.157Z,21.7
2018-10-16T04:26:14.324Z,21.22
2018-10-16T04:27:24.504Z,20.75
2018-10-16T04:28:34.121Z,20.75
2018-10-16T04:29:43.736Z,20.84
2018-10-16T04:30:53.631Z,21.22
2018-10-16T04:32:03.244Z,21.22
2018-10-16T04:33:13.135Z,21.03
2018-10-16T04:34:23.044Z,20.65
2018-10-16T04:35:32.114Z,20.46
2018-10-16T04:36:41.736Z,20.46
2018-10-16T04:37:51.621Z,20.26
2018-10-16T04:39:01.790Z,20.36
2018-10-16T04:40:11.416Z,20.36
2018-10-16T04:41:21.316Z,20.36
2018-10-16T04:42:31.039Z,20.17
2018-10-16T04:43:40.458Z,20.26
2018-10-16T04:44:50.993Z,19.79
2018-10-16T04:46:01.102Z,20.26
2018-10-16T04:47:10.719Z,20.46
2018-10-16T04:48:20.357Z,19.98
2018-10-16T04:49:29.975Z,19.6
2018-10-16T04:50:39.599Z,19.4
2018-10-16T04:51:49.769Z,19.12
2018-10-16T04:52:59.668Z,19.02
2018-10-16T04:54:09.567Z,19.4
2018-10-16T04:55:20.088Z,18.93
2018-10-16T04:56:29.469Z,19.21
2018-10-16T04:57:39.369Z,18.83
2018-10-16T04:58:48.979Z,18.74
2018-10-16T04:59:59.146Z,19.98
2018-10-16T05:01:08.770Z,20.75
2018-10-16T05:02:18.712Z,21.12
2018-10-16T05:03:28.601Z,21.8
2018-10-16T05:04:38.488Z,21.8
2018-10-16T05:05:48.106Z,22.08
2018-10-16T05:06:58.000Z,21.7
2018-10-16T05:08:08.212Z,20.94
2018-10-16T05:09:18.378Z,20.55
2018-10-16T05:10:27.734Z,20.07
2018-10-16T05:11:37.626Z,19.98
2018-10-16T05:12:47.516Z,19.79
2018-10-16T05:13:57.520Z,19.5
2018-10-16T05:15:07.139Z,19.4
2018-10-16T05:16:16.753Z,19.4
2018-10-16T05:17:26.949Z,19.69
2018-10-16T05:18:36.569Z,19.5
2018-10-16T05:19:46.178Z,19.21
2018-10-16T05:20:56.064Z,18.64
2018-10-16T05:22:06.239Z,18.83
2018-10-16T05:23:15.862Z,19.12
2018-10-16T05:24:26.022Z,18.74
2018-10-16T05:25:35.637Z,19.21
2018-10-16T05:26:45.284Z,18.93
2018-10-16T05:27:54.932Z,19.6
2018-10-16T05:29:04.561Z,18.93
2018-10-16T05:30:14.567Z,19.02
2018-10-16T05:31:24.897Z,19.12
2018-10-16T05:32:35.547Z,18.83
2018-10-16T05:33:44.892Z,18.93
2018-10-16T05:34:54.793Z,18.64
2018-10-16T05:36:04.676Z,18.74
2018-10-16T05:37:14.567Z,18.45
2018-10-16T05:38:24.762Z,18.74
2018-10-16T05:39:34.380Z,18.45
2018-10-16T05:40:44.555Z,18.35
2018-10-16T05:41:53.679Z,17.97
2018-10-16T05:43:03.312Z,18.07
2018-10-16T05:44:13.215Z,18.07
2018-10-16T05:45:23.161Z,17.88
2018-10-16T05:46:33.053Z,18.45
2018-10-16T05:47:42.953Z,18.26
2018-10-16T05:48:52.578Z,18.54
2018-10-16T05:50:02.506Z,18.07
2018-10-16T05:51:12.399Z,18.46
2018-10-16T05:52:22.573Z,18.54
2018-10-16T05:53:32.467Z,18.07
2018-10-16T05:54:42.640Z,18.74
2018-10-16T05:55:52.816Z,19.12
2018-10-16T05:57:03.001Z,19.12
2018-10-16T05:58:12.889Z,18.93
2018-10-16T05:59:22.790Z,19.6
2018-10-16T06:00:32.695Z,19.31
2018-10-16T06:01:42.874Z,19.5
2018-10-16T06:02:53.048Z,19.79
2018-10-16T06:04:02.673Z,19.8
2018-10-16T06:05:12.573Z,19.79
2018-10-16T06:06:22.194Z,19.6
2018-10-16T06:07:32.104Z,19.4
2018-10-16T06:08:42.279Z,18.94
2018-10-16T06:09:51.896Z,19.42
2018-10-16T06:11:01.372Z,18.94
2018-10-16T06:12:11.353Z,19.32
2018-10-16T06:13:21.663Z,18.93
2018-10-16T06:14:31.558Z,18.84
2018-10-16T06:15:41.449Z,19.12
2018-10-16T06:16:51.673Z,18.94
2018-10-16T06:18:01.591Z,18.84
2018-10-16T06:19:11.775Z,19.13
2018-10-16T06:20:21.673Z,19.32
2018-10-16T06:21:31.849Z,18.74
2018-10-16T06:22:41.466Z,18.64
2018-10-16T06:23:51.369Z,18.55
2018-10-16T06:25:00.990Z,18.65
2018-10-16T06:26:10.880Z,18.65
2018-10-16T06:27:20.883Z,18.65
2018-10-16T06:28:30.506Z,18.46
2018-10-16T06:29:40.670Z,18.37
2018-10-16T06:30:50.566Z,18.74
2018-10-16T06:32:00.184Z,18.74
2018-10-16T06:33:10.372Z,18.55
2018-10-16T06:34:20.364Z,18.94
2018-10-16T06:35:30.261Z,18.46
2018-10-16T06:36:39.868Z,17.98
2018-10-16T06:37:49.774Z,18.37
2018-10-16T06:38:59.683Z,18.55
2018-10-16T06:40:09.845Z,18.46
2018-10-16T06:41:20.255Z,18.74
2018-10-16T06:42:31.094Z,18.94
2018-10-16T06:43:41.026Z,18.94
2018-10-16T06:44:50.656Z,18.65
2018-10-16T06:46:00.554Z,18.17
2018-10-16T06:47:10.493Z,18.17
2018-10-16T06:48:21.704Z,18.65
2018-10-16T06:49:33.304Z,18.94
2018-10-16T06:50:43.207Z,19.23
2018-10-16T06:51:53.106Z,18.74
2018-10-16T06:53:03.041Z,19.42
2018-10-16T06:54:12.864Z,19.32
2018-10-16T06:55:22.901Z,19.99
2018-10-16T06:56:32.798Z,20.37
2018-10-16T06:57:42.140Z,20.57
2018-10-16T06:58:51.771Z,21.05
2018-10-16T07:00:01.748Z,21.34
2018-10-16T07:01:11.878Z,21.52
2018-10-16T07:02:21.785Z,21.81
2018-10-16T07:03:31.691Z,21.42
2018-10-16T07:04:41.632Z,21.91
2018-10-16T07:05:51.522Z,22.3
2018-10-16T07:07:02.065Z,22.49
2018-10-16T07:08:12.775Z,23.06
2018-10-16T07:09:22.952Z,23.83
2018-10-16T07:10:32.309Z,24.3
2018-10-16T07:11:42.203Z,24.5
2018-10-16T07:12:52.381Z,24.5
2018-10-16T07:14:02.281Z,24.4
2018-10-16T07:15:12.594Z,24.4
2018-10-16T07:16:22.485Z,25.16
2018-10-16T07:17:32.378Z,25.55
2018-10-16T07:18:42.276Z,25.74
2018-10-16T07:19:51.902Z,26.31
2018-10-16T07:21:01.634Z,27.08
2018-10-16T07:22:11.318Z,26.79
2018-10-16T07:23:21.606Z,26.89
2018-10-16T07:24:32.259Z,28.13
2018-10-16T07:25:42.430Z,28.63
2018-10-16T07:26:52.337Z,29.11
2018-10-16T07:28:01.958Z,29.49
2018-10-16T07:29:11.588Z,29.2
2018-10-16T07:30:21.763Z,29.11
2018-10-16T07:31:31.671Z,29.2
2018-10-16T07:32:41.020Z,28.15
2018-10-16T07:33:50.930Z,28.24
2018-10-16T07:35:00.821Z,28.24
2018-10-16T07:36:10.446Z,28.53
2018-10-16T07:37:20.354Z,28.81
2018-10-16T07:38:30.473Z,28.63
2018-10-16T07:39:40.686Z,30.44
2018-10-16T07:40:50.599Z,30.06
2018-10-16T07:42:00.762Z,30.26
2018-10-16T07:43:10.953Z,29.77
2018-10-16T07:44:21.126Z,28.81
2018-10-16T07:45:31.022Z,27.09
2018-10-16T07:46:41.201Z,25.57
2018-10-16T07:47:51.391Z,22.41
2018-10-16T07:49:01.288Z,20.68
2018-10-16T07:50:11.190Z,20.5
2018-10-16T07:51:20.919Z,19.64
2018-10-16T07:52:30.823Z,18.87
2018-10-16T07:53:40.519Z,18.58
2018-10-16T07:54:50.694Z,18.58
2018-10-16T07:56:00.591Z,17.91
2018-10-16T07:57:10.058Z,16.28
2018-10-16T07:58:20.586Z,16.76
2018-10-16T07:59:30.784Z,16.66
2018-10-16T08:00:40.679Z,18.01
2018-10-16T08:01:50.597Z,17.62
2018-10-16T08:03:00.492Z,18.01
2018-10-16T08:04:10.388Z,18.1
2018-10-16T08:05:20.284Z,18.49
2018-10-16T08:06:30.190Z,18.77
2018-10-16T08:07:40.084Z,19.25
2018-10-16T08:08:49.707Z,17.82
2018-10-16T08:09:59.602Z,16.09
2018-10-16T08:11:09.555Z,16.38
2018-10-16T08:12:19.611Z,16
2018-10-16T08:13:29.786Z,14.84
2018-10-16T08:14:39.952Z,14.46
2018-10-16T08:15:50.123Z,15.04
2018-10-16T08:16:59.546Z,14.75
2018-10-16T08:18:09.216Z,14.27
2018-10-16T08:19:19.161Z,12.16
2018-10-16T08:20:29.072Z,11.88
2018-10-16T08:21:38.685Z,10.92
2018-10-16T08:22:48.856Z,11.68
2018-10-16T08:23:58.492Z,11.49
2018-10-16T08:25:08.392Z,11.59
2018-10-16T08:26:18.571Z,10.82
2018-10-16T08:27:28.749Z,10.72
2018-10-16T08:28:38.378Z,11.5
2018-10-16T08:29:48.273Z,12.74
2018-10-16T08:30:58.233Z,12.07
2018-10-16T08:32:07.303Z,10.83
2018-10-16T08:33:17.207Z,10.73
2018-10-16T08:34:27.122Z,10.64
2018-10-16T08:35:36.472Z,10.06
2018-10-16T08:36:47.059Z,9.97
2018-10-16T08:37:56.687Z,9.87
2018-10-16T08:39:06.037Z,10.06
2018-10-16T08:40:15.719Z,10.83
2018-10-16T08:41:25.891Z,10.35
2018-10-16T08:42:35.512Z,9.87
2018-10-16T08:43:45.470Z,9.97
2018-10-16T08:44:55.599Z,9.58
2018-10-16T08:46:05.937Z,9.77
2018-10-16T08:47:15.917Z,9.87
2018-10-16T08:48:26.313Z,10.06
2018-10-16T08:49:36.479Z,11.11
2018-10-16T08:50:45.825Z,10.54
2018-10-16T08:51:55.743Z,10.64
2018-10-16T08:53:05.964Z,10.93
2018-10-16T08:54:15.032Z,10.16
2018-10-16T08:55:24.928Z,10.93
2018-10-16T08:56:34.275Z,13.13
2018-10-16T08:57:43.912Z,13.23
2018-10-16T08:58:53.532Z,14.09
2018-10-16T09:00:03.701Z,13.6
2018-10-16T09:01:13.418Z,13.23
2018-10-16T09:02:23.592Z,12.36
2018-10-16T09:03:33.212Z,12.75
2018-10-16T09:04:42.285Z,12.37
2018-10-16T09:05:51.912Z,14.09
2018-10-16T09:07:01.532Z,14.86
2018-10-16T09:08:11.714Z,16.11
2018-10-16T09:09:21.884Z,15.25
2018-10-16T09:10:31.778Z,15.63
2018-10-16T09:11:41.952Z,16.11
2018-10-16T09:12:51.866Z,15.63
2018-10-16T09:14:02.103Z,16.01
2018-10-16T09:15:12.663Z,16.01
2018-10-16T09:16:22.289Z,17.25
2018-10-16T09:17:31.905Z,17.35
2018-10-16T09:18:41.521Z,19.09
2018-10-16T09:19:51.146Z,21.2
2018-10-16T09:21:01.042Z,23.6
2018-10-16T09:22:10.660Z,22.16
2018-10-16T09:23:20.557Z,21.3
2018-10-16T09:24:30.515Z,23.88
2018-10-16T09:25:40.059Z,21.68
2018-10-16T09:26:50.240Z,23.88
2018-10-16T09:28:00.138Z,22.16
2018-10-16T09:29:09.491Z,20.81
2018-10-16T09:30:19.383Z,20.05
2018-10-16T09:31:29.005Z,24.19
2018-10-16T09:32:38.631Z,22.65
2018-10-16T09:33:48.534Z,24.57
2018-10-16T09:34:58.169Z,24.95
2018-10-16T09:36:07.243Z,26.01
2018-10-16T09:37:17.423Z,28.31
2018-10-16T09:38:27.404Z,28.41
2018-10-16T09:39:37.021Z,29.27
2018-10-16T09:40:46.923Z,29.27
2018-10-16T09:41:56.857Z,28.6
2018-10-16T09:43:06.755Z,29.37
2018-10-16T09:44:16.647Z,30.15
2018-10-16T09:45:26.545Z,32.64
2018-10-16T09:46:35.613Z,36.11
2018-10-16T09:47:45.793Z,36.4
2018-10-16T09:48:55.961Z,40.72
2018-10-16T09:50:05.313Z,40.14
2018-10-16T09:51:14.943Z,39.28
2018-10-16T09:52:24.839Z,44.17
2018-10-16T09:53:34.511Z,46.86
2018-10-16T09:54:44.421Z,47.05
2018-10-16T09:55:54.595Z,48.69
2018-10-16T09:57:04.494Z,49.74
2018-10-16T09:58:14.436Z,49.07
2018-10-16T09:59:24.323Z,48.33
2018-10-16T10:00:34.279Z,47.17
2018-10-16T10:01:44.206Z,46.69
2018-10-16T10:02:54.105Z,48.33
2018-10-16T10:04:03.989Z,47.08
2018-10-16T10:05:13.885Z,49.57
2018-10-16T10:06:24.052Z,53.03
2018-10-16T10:07:33.952Z,52.26
2018-10-16T10:08:43.580Z,52.55
2018-10-16T10:09:53.476Z,52.26
2018-10-16T10:11:03.312Z,53.32
2018-10-16T10:12:13.917Z,55.05
2018-10-16T10:13:23.809Z,54.96
2018-10-16T10:14:33.705Z,55.34
2018-10-16T10:15:43.639Z,52.68
2018-10-16T10:16:53.538Z,55.82
2018-10-16T10:18:03.434Z,55.85
2018-10-16T10:19:13.062Z,55.66
2018-10-16T10:20:22.963Z,60.08
2018-10-16T10:21:32.580Z,59.89
2018-10-16T10:22:42.206Z,59.12
2018-10-16T10:23:51.830Z,58.73
2018-10-16T10:25:01.744Z,58.06
2018-10-16T10:26:11.446Z,61.52
2018-10-16T10:27:21.067Z,59.6
2018-10-16T10:28:30.414Z,60.37
2018-10-16T10:29:40.389Z,60.37
2018-10-16T10:30:50.707Z,58.06
2018-10-16T10:32:00.056Z,62.1
2018-10-16T10:33:09.676Z,62.29
2018-10-16T10:34:19.851Z,63.57
2018-10-16T10:35:29.798Z,62.71
2018-10-16T10:36:40.430Z,62.99
2018-10-16T10:37:49.776Z,63.57
2018-10-16T10:38:59.396Z,64.05
2018-10-16T10:40:09.019Z,62.41
2018-10-16T10:41:18.368Z,63.86
2018-10-16T10:42:28.261Z,64.25
2018-10-16T10:43:38.167Z,63.95
2018-10-16T10:44:47.522Z,64.82
2018-10-16T10:45:57.462Z,64.15
2018-10-16T10:47:06.812Z,64.47
2018-10-16T10:48:16.715Z,63.89
2018-10-16T10:49:26.345Z,63.99
2018-10-16T10:50:37.195Z,64.28
2018-10-16T10:51:47.299Z,63.99
2018-10-16T10:52:57.194Z,65.05
2018-10-16T10:54:07.091Z,68.13
2018-10-16T10:55:16.990Z,68.32
2018-10-16T10:56:27.259Z,68.51
2018-10-16T10:57:37.552Z,69.09
2018-10-16T10:58:47.728Z,67.26
2018-10-16T10:59:57.898Z,69.38
2018-10-16T11:01:07.796Z,70.05
2018-10-16T11:02:17.417Z,70.05
2018-10-16T11:03:27.898Z,69.85
2018-10-16T11:04:38.959Z,70.43
2018-10-16T11:05:49.141Z,69.95
2018-10-16T11:06:58.769Z,71.24
2018-10-16T11:08:08.954Z,70.95
2018-10-16T11:09:18.735Z,72.49
2018-10-16T11:10:28.642Z,73.26
2018-10-16T11:11:38.824Z,73.26
2018-10-16T11:12:48.181Z,73.74
2018-10-16T11:13:57.809Z,73.94
2018-10-16T11:15:07.885Z,74.8
2018-10-16T11:16:18.129Z,73.84
2018-10-16T11:17:28.328Z,73.26
2018-10-16T11:18:37.946Z,73.84
2018-10-16T11:19:48.115Z,74.03
2018-10-16T11:20:57.831Z,74.32
2018-10-16T11:22:07.269Z,74.13
2018-10-16T11:23:17.169Z,73.94
2018-10-16T11:24:26.798Z,73.55
2018-10-16T11:25:35.602Z,73.55
2018-10-16T11:26:45.773Z,72.78
2018-10-16T11:27:56.058Z,71.56
2018-10-16T11:29:06.235Z,71.72
2018-10-16T11:30:16.368Z,72.33
2018-10-16T11:31:26.220Z,72.24
2018-10-16T11:32:36.111Z,72.43
2018-10-16T11:33:46.010Z,71.47
2018-10-16T11:34:55.912Z,72.33
2018-10-16T11:36:06.084Z,71.95
2018-10-16T11:37:15.977Z,71.66
2018-10-16T11:38:25.634Z,72.33
2018-10-16T11:39:35.523Z,71.18
2018-10-16T11:40:45.421Z,72.81
2018-10-16T11:41:55.316Z,72.63
2018-10-16T11:43:04.669Z,72.43
2018-10-16T11:44:14.296Z,72.33
2018-10-16T11:45:24.198Z,71.95
2018-10-16T11:46:34.455Z,71.85
2018-10-16T11:47:44.693Z,70.6
2018-10-16T11:48:54.592Z,70.41
2018-10-16T11:50:04.687Z,70.41
2018-10-16T11:51:15.309Z,69.54
2018-10-16T11:52:25.087Z,70.25
2018-10-16T11:53:35.272Z,70.83
2018-10-16T11:54:45.446Z,71.5
2018-10-16T11:55:55.432Z,71.28
2018-10-16T11:57:05.537Z,72.56
2018-10-16T11:58:15.438Z,71.41
2018-10-16T11:59:25.403Z,71.89
2018-10-16T12:00:34.688Z,71.89
2018-10-16T12:01:44.045Z,73.14
2018-10-16T12:02:53.738Z,73.14
2018-10-16T12:04:03.084Z,74.2
2018-10-16T12:05:12.727Z,74.33
2018-10-16T12:06:22.631Z,74.24
2018-10-16T12:07:32.256Z,74.14
2018-10-16T12:08:42.153Z,74.14
2018-10-16T12:09:52.335Z,75.78
2018-10-16T12:11:02.593Z,75.2
2018-10-16T12:12:12.823Z,75.78
2018-10-16T12:13:22.721Z,76.75
2018-10-16T12:14:32.071Z,76.75
2018-10-16T12:15:41.974Z,77.23
2018-10-16T12:16:51.811Z,77.42
2018-10-16T12:18:01.957Z,77.03
2018-10-16T12:19:11.910Z,77.03
2018-10-16T12:20:22.138Z,77.9
2018-10-16T12:21:31.212Z,77.33
2018-10-16T12:22:41.111Z,77.23
2018-10-16T12:23:51.388Z,77.42
2018-10-16T12:25:01.795Z,77.61
2018-10-16T12:26:11.298Z,77.61
2018-10-16T12:27:21.478Z,77.51
2018-10-16T12:28:31.649Z,77.51
2018-10-16T12:29:41.554Z,78.19
2018-10-16T12:30:51.470Z,78.19
2018-10-16T12:32:01.962Z,78.19
2018-10-16T12:33:11.937Z,78
2018-10-16T12:34:21.917Z,78.19
2018-10-16T12:35:31.552Z,78.38
2018-10-16T12:36:41.726Z,78.48
2018-10-16T12:37:51.681Z,78.19
2018-10-16T12:39:01.703Z,77.9
2018-10-16T12:40:11.331Z,78.09
2018-10-16T12:41:21.706Z,78.09
2018-10-16T12:42:31.330Z,78
2018-10-16T12:43:41.277Z,78.09
2018-10-16T12:44:52.174Z,78
2018-10-16T12:46:02.532Z,78.19
2018-10-16T12:47:13.259Z,78.09
2018-10-16T12:48:22.678Z,78
2018-10-16T12:49:32.572Z,78.09
2018-10-16T12:50:42.791Z,78.09
2018-10-16T12:51:52.421Z,77.51
2018-10-16T12:53:02.425Z,77.42
2018-10-16T12:54:13.092Z,78.09
2018-10-16T12:55:23.437Z,77.71
2018-10-16T12:56:33.339Z,77.42
2018-10-16T12:57:43.061Z,77.33
2018-10-16T12:58:52.468Z,77.81
2018-10-16T13:00:02.962Z,77.33
2018-10-16T13:01:12.881Z,77.51
2018-10-16T13:02:23.064Z,77.33
2018-10-16T13:03:33.339Z,77.13
2018-10-16T13:04:43.999Z,77.42
2018-10-16T13:05:54.175Z,77.61
2018-10-16T13:07:03.788Z,76.75
2018-10-16T13:08:13.860Z,77.75
2018-10-16T13:09:23.844Z,77.07
2018-10-16T13:10:34.027Z,76.98
2018-10-16T13:11:44.223Z,77.17
2018-10-16T13:12:53.599Z,77.17
2018-10-16T13:14:03.533Z,77.17
2018-10-16T13:15:14.054Z,77.55
2018-10-16T13:16:23.956Z,77.84
2018-10-16T13:17:34.190Z,77.46
2018-10-16T13:18:43.819Z,77.75
2018-10-16T13:19:53.836Z,77.46
2018-10-16T13:21:03.614Z,78.03
2018-10-16T13:22:13.601Z,77.94
2018-10-16T13:23:23.700Z,77.94
2018-10-16T13:24:33.143Z,78.33
2018-10-16T13:25:43.039Z,78.36
2018-10-16T13:26:52.939Z,78.23
2018-10-16T13:28:03.276Z,78.42
2018-10-16T13:29:13.375Z,78.17
2018-10-16T13:30:24.026Z,78.85
2018-10-16T13:31:33.654Z,78.94
2018-10-16T13:32:43.282Z,79.24
2018-10-16T13:33:53.502Z,79.33
2018-10-16T13:35:03.643Z,80.1
2018-10-16T13:36:13.848Z,80.68
2018-10-16T13:37:23.195Z,80.49
2018-10-16T13:38:33.377Z,80.78
2018-10-16T13:39:43.560Z,80.58
2018-10-16T13:40:52.639Z,80.39
2018-10-16T13:42:02.538Z,80.97
2018-10-16T13:43:12.437Z,80.78
2018-10-16T13:44:22.059Z,80.97
2018-10-16T13:45:32.231Z,81.16
2018-10-16T13:46:42.146Z,80.87
2018-10-16T13:47:52.369Z,81.45
2018-10-16T13:49:02.544Z,81.35
2018-10-16T13:50:12.645Z,81.26
2018-10-16T13:51:23.083Z,81.16
2018-10-16T13:52:33.260Z,80.68
2018-10-16T13:53:43.205Z,81.84
2018-10-16T13:54:52.853Z,80.78
2018-10-16T13:56:03.126Z,81.93
2018-10-16T13:57:13.595Z,82.03
2018-10-16T13:58:23.220Z,81.84
2018-10-16T13:59:33.123Z,81.26
2018-10-16T14:00:43.028Z,82.03
2018-10-16T14:01:52.431Z,81.74
2018-10-16T14:03:02.463Z,81.84
2018-10-16T14:04:12.232Z,81.84
2018-10-16T14:05:21.652Z,81.93
2018-10-16T14:06:31.552Z,81.74
2018-10-16T14:07:41.457Z,81.74
2018-10-16T14:08:51.358Z,82.36
2018-10-16T14:10:01.378Z,82.17
2018-10-16T14:11:11.506Z,81.78
2018-10-16T14:12:21.404Z,82.46
2018-10-16T14:13:31.032Z,81.88
2018-10-16T14:14:40.933Z,82.84
2018-10-16T14:15:50.839Z,82.36
2018-10-16T14:17:01.262Z,82.65
2018-10-16T14:18:11.436Z,82.65
2018-10-16T14:19:21.607Z,82.94
2018-10-16T14:20:31.513Z,83.23
2018-10-16T14:21:41.415Z,82.56
2018-10-16T14:22:51.044Z,82.75
2018-10-16T14:24:00.672Z,82.84
2018-10-16T14:25:10.847Z,82.84
2018-10-16T14:26:20.780Z,83.23
2018-10-16T14:27:30.857Z,83.52
2018-10-16T14:28:40.485Z,82.65
2018-10-16T14:29:50.109Z,83.14
2018-10-16T14:31:00.281Z,83.14
2018-10-16T14:32:10.164Z,83.62
2018-10-16T14:33:20.955Z,83.62
2018-10-16T14:34:31.261Z,83.33
2018-10-16T14:35:41.929Z,83.72
2018-10-16T14:36:51.595Z,83.62
2018-10-16T14:38:01.652Z,83.62
2018-10-16T14:39:11.913Z,83.52
2018-10-16T14:40:21.196Z,83.52
2018-10-16T14:41:31.520Z,83.62
2018-10-16T14:42:41.415Z,83.81
2018-10-16T14:43:51.590Z,83.52
2018-10-16T14:45:01.602Z,83.04
2018-10-16T14:46:12.050Z,83.62
2018-10-16T14:47:21.761Z,83.52
2018-10-16T14:48:31.661Z,83.14
2018-10-16T14:49:41.565Z,83.52
2018-10-16T14:50:51.201Z,83.52
2018-10-16T14:52:01.252Z,83.42
2018-10-16T14:53:11.748Z,83.52
2018-10-16T14:54:21.927Z,83.72
2018-10-16T14:55:31.555Z,84.48
2018-10-16T14:56:41.197Z,84.1
2018-10-16T14:57:51.028Z,83.72
2018-10-16T14:59:00.385Z,83.91
2018-10-16T15:00:10.558Z,84.3
2018-10-16T15:01:19.908Z,84.3
2018-10-16T15:02:29.810Z,84.48
2018-10-16T15:03:40.024Z,84.48
2018-10-16T15:04:49.965Z,84.97